sensor_id;sensor_type;location;lat;lon;timestamp;pressure;altitude;pressure_sealevel;temperature;humidity
40075;BME280;26529;51.530;11.754;2023-04-04T00:00:29;101350.97;;;19.73;43.92
40075;BME280;26529;51.530;11.754;2023-04-04T00:02:54;101350.97;;;19.73;43.89
40075;BME280;26529;51.530;11.754;2023-04-04T00:05:20;101353.81;;;19.70;44.02
40075;BME280;26529;51.530;11.754;2023-04-04T00:07:46;101350.19;;;19.71;44.08
40075;BME280;26529;51.530;11.754;2023-04-04T00:10:12;101347.53;;;19.71;43.91
40075;BME280;26529;51.530;11.754;2023-04-04T00:12:37;101342.22;;;19.71;44.08
40075;BME280;26529;51.530;11.754;2023-04-04T00:15:03;101344.09;;;19.69;43.87
40075;BME280;26529;51.530;11.754;2023-04-04T00:17:29;101352.09;;;19.69;43.89
40075;BME280;26529;51.530;11.754;2023-04-04T00:19:54;101347.69;;;19.68;43.91
40075;BME280;26529;51.530;11.754;2023-04-04T00:22:21;101344.94;;;19.70;44.11
40075;BME280;26529;51.530;11.754;2023-04-04T00:24:46;101348.63;;;19.67;43.96
40075;BME280;26529;51.530;11.754;2023-04-04T00:27:13;101344.09;;;19.69;43.86
40075;BME280;26529;51.530;11.754;2023-04-04T00:29:38;101340.56;;;19.69;43.87
40075;BME280;26529;51.530;11.754;2023-04-04T00:32:04;101344.25;;;19.66;43.88
40075;BME280;26529;51.530;11.754;2023-04-04T00:34:30;101345.19;;;19.65;43.97
40075;BME280;26529;51.530;11.754;2023-04-04T00:36:55;101341.56;;;19.66;44.02
40075;BME280;26529;51.530;11.754;2023-04-04T00:39:21;101340.63;;;19.67;44.00
40075;BME280;26529;51.530;11.754;2023-04-04T00:41:48;101338.91;;;19.66;43.90
40075;BME280;26529;51.530;11.754;2023-04-04T00:44:14;101338.91;;;19.66;43.88
40075;BME280;26529;51.530;11.754;2023-04-04T00:46:40;101331.00;;;19.64;43.89
40075;BME280;26529;51.530;11.754;2023-04-04T00:49:06;101334.59;;;19.63;44.05
40075;BME280;26529;51.530;11.754;2023-04-04T00:51:31;101336.47;;;19.61;44.00
40075;BME280;26529;51.530;11.754;2023-04-04T00:53:57;101328.44;;;19.63;43.94
40075;BME280;26529;51.530;11.754;2023-04-04T00:56:23;101334.69;;;19.62;44.12
40075;BME280;26529;51.530;11.754;2023-04-04T00:58:49;101328.44;;;19.63;43.85
40075;BME280;26529;51.530;11.754;2023-04-04T01:01:15;101331.16;;;19.61;44.00
40075;BME280;26529;51.530;11.754;2023-04-04T01:03:41;101326.72;;;19.62;44.02
40075;BME280;26529;51.530;11.754;2023-04-04T01:06:07;101324.97;;;19.61;43.95
40075;BME280;26529;51.530;11.754;2023-04-04T01:08:35;101321.41;;;19.62;44.00
40075;BME280;26529;51.530;11.754;2023-04-04T01:11:01;101327.72;;;19.59;43.99
40075;BME280;26529;51.530;11.754;2023-04-04T01:13:27;101329.56;;;19.57;43.95
40075;BME280;26529;51.530;11.754;2023-04-04T01:15:54;101333.19;;;19.56;44.01
40075;BME280;26529;51.530;11.754;2023-04-04T01:18:20;101330.44;;;19.58;44.10
40075;BME280;26529;51.530;11.754;2023-04-04T01:20:55;101319.81;;;19.58;44.06
40075;BME280;26529;51.530;11.754;2023-04-04T01:23:23;101325.13;;;19.58;44.04
40075;BME280;26529;51.530;11.754;2023-04-04T01:26:02;101330.44;;;19.58;44.00
40075;BME280;26529;51.530;11.754;2023-04-04T01:28:28;101324.25;;;19.57;44.09
40075;BME280;26529;51.530;11.754;2023-04-04T01:30:54;101326.91;;;19.57;44.28
40075;BME280;26529;51.530;11.754;2023-04-04T01:33:27;101323.41;;;19.57;44.12
40075;BME280;26529;51.530;11.754;2023-04-04T01:36:15;101319.94;;;19.55;44.01
40075;BME280;26529;51.530;11.754;2023-04-04T01:39:04;101316.38;;;19.56;44.02
40075;BME280;26529;51.530;11.754;2023-04-04T01:41:34;101313.00;;;19.52;44.00
40075;BME280;26529;51.530;11.754;2023-04-04T01:44:03;101318.22;;;19.53;43.95
40075;BME280;26529;51.530;11.754;2023-04-04T01:46:29;101318.22;;;19.53;44.04
40075;BME280;26529;51.530;11.754;2023-04-04T01:48:55;101317.38;;;19.53;44.00
40075;BME280;26529;51.530;11.754;2023-04-04T01:51:25;101317.38;;;19.53;44.06
40075;BME280;26529;51.530;11.754;2023-04-04T01:53:52;101321.81;;;19.52;44.04
40075;BME280;26529;51.530;11.754;2023-04-04T01:56:17;101313.91;;;19.51;44.11
40075;BME280;26529;51.530;11.754;2023-04-04T01:58:43;101319.22;;;19.51;44.08
40075;BME280;26529;51.530;11.754;2023-04-04T02:01:09;101313.13;;;19.49;43.85
40075;BME280;26529;51.530;11.754;2023-04-04T02:03:34;101314.00;;;19.49;44.00
40075;BME280;26529;51.530;11.754;2023-04-04T02:06:00;101313.06;;;19.50;44.04
40075;BME280;26529;51.530;11.754;2023-04-04T02:08:26;101308.59;;;19.51;44.15
40075;BME280;26529;51.530;11.754;2023-04-04T02:10:58;101310.47;;;19.49;44.04
40075;BME280;26529;51.530;11.754;2023-04-04T02:13:25;101308.59;;;19.51;44.10
40075;BME280;26529;51.530;11.754;2023-04-04T02:15:51;101309.63;;;19.48;44.26
40075;BME280;26529;51.530;11.754;2023-04-04T02:18:17;101307.81;;;19.49;44.06
40075;BME280;26529;51.530;11.754;2023-04-04T02:20:43;101297.25;;;19.47;44.11
40075;BME280;26529;51.530;11.754;2023-04-04T02:23:09;101302.56;;;19.47;44.07
40075;BME280;26529;51.530;11.754;2023-04-04T02:25:34;101303.44;;;19.48;44.07
40075;BME280;26529;51.530;11.754;2023-04-04T02:28:00;101304.31;;;19.48;43.93
40075;BME280;26529;51.530;11.754;2023-04-04T02:30:25;101291.09;;;19.47;44.30
40075;BME280;26529;51.530;11.754;2023-04-04T02:32:51;101297.25;;;19.47;44.03
40075;BME280;26529;51.530;11.754;2023-04-04T02:35:19;101294.59;;;19.47;44.01
40075;BME280;26529;51.530;11.754;2023-04-04T02:37:45;101288.50;;;19.45;44.11
40075;BME280;26529;51.530;11.754;2023-04-04T02:40:17;101288.50;;;19.45;43.95
40075;BME280;26529;51.530;11.754;2023-04-04T02:42:43;101282.28;;;19.45;44.14
40075;BME280;26529;51.530;11.754;2023-04-04T02:45:10;101285.81;;;19.45;44.20
40075;BME280;26529;51.530;11.754;2023-04-04T02:47:37;101287.78;;;19.42;44.06
40075;BME280;26529;51.530;11.754;2023-04-04T02:50:04;101280.50;;;19.45;44.26
40075;BME280;26529;51.530;11.754;2023-04-04T02:52:30;101270.81;;;19.44;44.12
40075;BME280;26529;51.530;11.754;2023-04-04T02:55:03;101269.09;;;19.43;43.96
40075;BME280;26529;51.530;11.754;2023-04-04T02:57:33;101271.81;;;19.42;43.90
40075;BME280;26529;51.530;11.754;2023-04-04T02:59:59;101268.28;;;19.41;44.03
40075;BME280;26529;51.530;11.754;2023-04-04T03:02:26;101268.28;;;19.41;44.09
40075;BME280;26529;51.530;11.754;2023-04-04T03:04:52;101272.69;;;19.42;44.12
40075;BME280;26529;51.530;11.754;2023-04-04T03:07:17;101267.38;;;19.42;44.09
40075;BME280;26529;51.530;11.754;2023-04-04T03:09:43;101263.84;;;19.42;44.12
40075;BME280;26529;51.530;11.754;2023-04-04T03:12:10;101263.91;;;19.40;44.18
40075;BME280;26529;51.530;11.754;2023-04-04T03:14:36;101259.47;;;19.41;44.27
40075;BME280;26529;51.530;11.754;2023-04-04T03:17:02;101257.75;;;19.39;44.24
40075;BME280;26529;51.530;11.754;2023-04-04T03:19:27;101256.88;;;19.39;44.08
40075;BME280;26529;51.530;11.754;2023-04-04T03:21:53;101246.22;;;19.39;43.96
40075;BME280;26529;51.530;11.754;2023-04-04T03:24:18;101249.84;;;19.38;44.08
40075;BME280;26529;51.530;11.754;2023-04-04T03:26:43;101242.78;;;19.37;44.12
40075;BME280;26529;51.530;11.754;2023-04-04T03:29:11;101254.22;;;19.39;44.14
40075;BME280;26529;51.530;11.754;2023-04-04T03:31:36;101250.72;;;19.38;44.18
40075;BME280;26529;51.530;11.754;2023-04-04T03:34:02;101251.72;;;19.36;44.07
40075;BME280;26529;51.530;11.754;2023-04-04T03:36:29;101248.97;;;19.37;44.16
40075;BME280;26529;51.530;11.754;2023-04-04T03:38:54;101250.00;;;19.35;44.10
40075;BME280;26529;51.530;11.754;2023-04-04T03:41:20;101245.53;;;19.35;43.93
40075;BME280;26529;51.530;11.754;2023-04-04T03:43:45;101247.41;;;19.33;44.26
40075;BME280;26529;51.530;11.754;2023-04-04T03:46:12;101245.47;;;19.37;44.18
40075;BME280;26529;51.530;11.754;2023-04-04T03:48:38;101244.69;;;19.35;44.18
40075;BME280;26529;51.530;11.754;2023-04-04T03:51:07;101235.75;;;19.36;44.07
40075;BME280;26529;51.530;11.754;2023-04-04T03:53:32;101246.53;;;19.33;44.13
40075;BME280;26529;51.530;11.754;2023-04-04T03:56:01;101239.50;;;19.32;44.21
40075;BME280;26529;51.530;11.754;2023-04-04T03:58:27;101244.69;;;19.35;44.33
40075;BME280;26529;51.530;11.754;2023-04-04T04:00:53;101242.94;;;19.34;44.13
40075;BME280;26529;51.530;11.754;2023-04-04T04:03:19;101238.63;;;19.31;44.07
40075;BME280;26529;51.530;11.754;2023-04-04T04:05:45;101239.50;;;19.32;44.18
40075;BME280;26529;51.530;11.754;2023-04-04T04:08:12;101243.03;;;19.32;44.26
40075;BME280;26529;51.530;11.754;2023-04-04T04:10:38;101239.50;;;19.32;44.29
40075;BME280;26529;51.530;11.754;2023-04-04T04:13:03;101241.38;;;19.30;44.20
40075;BME280;26529;51.530;11.754;2023-04-04T04:15:29;101232.47;;;19.31;44.15
40075;BME280;26529;51.530;11.754;2023-04-04T04:17:57;101236.06;;;19.30;44.17
40075;BME280;26529;51.530;11.754;2023-04-04T04:20:25;101240.44;;;19.31;44.17
40075;BME280;26529;51.530;11.754;2023-04-04T04:22:52;101240.44;;;19.31;44.20
40075;BME280;26529;51.530;11.754;2023-04-04T04:25:17;101238.72;;;19.30;44.13
40075;BME280;26529;51.530;11.754;2023-04-04T04:27:56;101238.72;;;19.30;44.16
40075;BME280;26529;51.530;11.754;2023-04-04T04:30:22;101246.69;;;19.30;44.19
40075;BME280;26529;51.530;11.754;2023-04-04T04:32:49;101240.56;;;19.28;44.23
40075;BME280;26529;51.530;11.754;2023-04-04T04:35:15;101242.31;;;19.29;44.20
40075;BME280;26529;51.530;11.754;2023-04-04T04:37:42;101244.97;;;19.29;44.24
40075;BME280;26529;51.530;11.754;2023-04-04T04:40:08;101241.50;;;19.27;44.09
40075;BME280;26529;51.530;11.754;2023-04-04T04:42:45;101244.97;;;19.29;44.20
40075;BME280;26529;51.530;11.754;2023-04-04T04:45:12;101241.50;;;19.27;44.12
40075;BME280;26529;51.530;11.754;2023-04-04T04:47:42;101243.22;;;19.28;44.09
40075;BME280;26529;51.530;11.754;2023-04-04T04:50:09;101244.16;;;19.27;44.25
40075;BME280;26529;51.530;11.754;2023-04-04T04:52:39;101244.16;;;19.27;44.16
40075;BME280;26529;51.530;11.754;2023-04-04T04:55:06;101247.78;;;19.25;44.04
40075;BME280;26529;51.530;11.754;2023-04-04T04:57:34;101243.41;;;19.24;44.23
40075;BME280;26529;51.530;11.754;2023-04-04T05:00:04;101248.72;;;19.24;44.16
40075;BME280;26529;51.530;11.754;2023-04-04T05:02:30;101249.66;;;19.23;44.21
40075;BME280;26529;51.530;11.754;2023-04-04T05:04:56;101248.72;;;19.24;44.14
40075;BME280;26529;51.530;11.754;2023-04-04T05:07:22;101252.25;;;19.25;44.03
40075;BME280;26529;51.530;11.754;2023-04-04T05:09:49;101251.31;;;19.26;44.16
40075;BME280;26529;51.530;11.754;2023-04-04T05:12:16;101254.03;;;19.24;44.33
40075;BME280;26529;51.530;11.754;2023-04-04T05:14:45;101254.97;;;19.23;44.11
40075;BME280;26529;51.530;11.754;2023-04-04T05:17:11;101252.31;;;19.23;44.30
40075;BME280;26529;51.530;11.754;2023-04-04T05:19:36;101252.31;;;19.23;44.21
40075;BME280;26529;51.530;11.754;2023-04-04T05:22:03;101261.22;;;19.22;44.15
40075;BME280;26529;51.530;11.754;2023-04-04T05:24:40;101262.94;;;19.23;44.12
40075;BME280;26529;51.530;11.754;2023-04-04T05:27:08;101265.59;;;19.23;44.10
40075;BME280;26529;51.530;11.754;2023-04-04T05:29:40;101263.94;;;19.21;44.21
40075;BME280;26529;51.530;11.754;2023-04-04T05:32:05;101264.72;;;19.23;44.23
40075;BME280;26529;51.530;11.754;2023-04-04T05:34:33;101267.38;;;19.23;44.15
40075;BME280;26529;51.530;11.754;2023-04-04T05:37:00;101275.47;;;19.21;44.27
40075;BME280;26529;51.530;11.754;2023-04-04T05:39:26;101271.00;;;19.22;44.37
40075;BME280;26529;51.530;11.754;2023-04-04T05:41:59;101279.03;;;19.20;44.14
40075;BME280;26529;51.530;11.754;2023-04-04T05:44:28;101274.66;;;19.19;44.27
40075;BME280;26529;51.530;11.754;2023-04-04T05:46:54;101280.78;;;19.21;44.35
40075;BME280;26529;51.530;11.754;2023-04-04T05:49:21;101280.78;;;19.21;44.32
40075;BME280;26529;51.530;11.754;2023-04-04T05:51:54;101279.91;;;19.21;44.29
40075;BME280;26529;51.530;11.754;2023-04-04T05:54:21;101279.03;;;19.20;44.20
40075;BME280;26529;51.530;11.754;2023-04-04T05:56:47;101279.84;;;19.22;44.24
40075;BME280;26529;51.530;11.754;2023-04-04T05:59:35;101282.63;;;19.19;44.56
40075;BME280;26529;51.530;11.754;2023-04-04T06:02:03;101280.78;;;19.21;44.18
40075;BME280;26529;51.530;11.754;2023-04-04T06:04:30;101285.22;;;19.21;44.34
40075;BME280;26529;51.530;11.754;2023-04-04T06:06:57;101289.53;;;19.23;44.24
40075;BME280;26529;51.530;11.754;2023-04-04T06:09:23;101287.81;;;19.22;44.24
40075;BME280;26529;51.530;11.754;2023-04-04T06:11:48;101293.13;;;19.22;44.14
40075;BME280;26529;51.530;11.754;2023-04-04T06:14:15;101291.41;;;19.21;44.20
40075;BME280;26529;51.530;11.754;2023-04-04T06:16:41;101292.31;;;19.20;44.47
40075;BME280;26529;51.530;11.754;2023-04-04T06:19:06;101290.53;;;19.21;44.41
40075;BME280;26529;51.530;11.754;2023-04-04T06:21:32;101287.81;;;19.22;44.30
40075;BME280;26529;51.530;11.754;2023-04-04T06:23:57;101290.53;;;19.21;44.27
40075;BME280;26529;51.530;11.754;2023-04-04T06:26:23;101286.88;;;19.23;44.24
40075;BME280;26529;51.530;11.754;2023-04-04T06:28:50;101288.75;;;19.21;44.25
40075;BME280;26529;51.530;11.754;2023-04-04T06:31:36;101283.34;;;19.23;44.27
40075;BME280;26529;51.530;11.754;2023-04-04T06:34:08;101294.06;;;19.21;44.20
40075;BME280;26529;51.530;11.754;2023-04-04T06:36:47;101303.59;;;19.25;44.28
40075;BME280;26529;51.530;11.754;2023-04-04T06:39:14;101293.03;;;19.24;43.96
40075;BME280;26529;51.530;11.754;2023-04-04T06:41:42;101298.28;;;19.25;44.36
40075;BME280;26529;51.530;11.754;2023-04-04T06:44:07;101303.47;;;19.29;44.35
40075;BME280;26529;51.530;11.754;2023-04-04T06:46:36;101299.00;;;19.29;44.64
40075;BME280;26529;51.530;11.754;2023-04-04T06:49:01;101302.53;;;19.30;44.58
40075;BME280;26529;51.530;11.754;2023-04-04T06:51:26;101298.94;;;19.31;44.71
40075;BME280;26529;51.530;11.754;2023-04-04T06:53:55;101299.72;;;19.33;44.73
40075;BME280;26529;51.530;11.754;2023-04-04T06:56:21;101297.06;;;19.33;44.50
40075;BME280;26529;51.530;11.754;2023-04-04T06:58:47;101301.44;;;19.34;44.59
40075;BME280;26529;51.530;11.754;2023-04-04T07:01:13;101299.66;;;19.34;44.62
40075;BME280;26529;51.530;11.754;2023-04-04T07:03:38;101298.72;;;19.35;44.76
40075;BME280;26529;51.530;11.754;2023-04-04T07:06:04;101304.81;;;19.37;44.68
40075;BME280;26529;51.530;11.754;2023-04-04T07:08:29;101304.81;;;19.37;44.62
40075;BME280;26529;51.530;11.754;2023-04-04T07:10:57;101298.59;;;19.38;44.70
40075;BME280;26529;51.530;11.754;2023-04-04T07:13:22;101301.13;;;19.40;44.55
40075;BME280;26529;51.530;11.754;2023-04-04T07:15:48;101290.50;;;19.40;44.64
40075;BME280;26529;51.530;11.754;2023-04-04T07:18:14;101296.47;;;19.45;44.52
40075;BME280;26529;51.530;11.754;2023-04-04T07:20:41;101295.59;;;19.45;44.70
40075;BME280;26529;51.530;11.754;2023-04-04T07:23:08;101287.72;;;19.43;44.68
40075;BME280;26529;51.530;11.754;2023-04-04T07:25:34;101286.78;;;19.44;44.70
40075;BME280;26529;51.530;11.754;2023-04-04T07:27:59;101294.75;;;19.44;44.73
40075;BME280;26529;51.530;11.754;2023-04-04T07:30:25;101290.38;;;19.43;44.73
40075;BME280;26529;51.530;11.754;2023-04-04T07:33:01;101298.13;;;19.48;44.80
40075;BME280;26529;51.530;11.754;2023-04-04T07:35:27;101294.50;;;19.49;44.68
40075;BME280;26529;51.530;11.754;2023-04-04T07:37:53;101290.84;;;19.51;44.63
40075;BME280;26529;51.530;11.754;2023-04-04T07:40:19;101294.28;;;19.53;44.61
40075;BME280;26529;51.530;11.754;2023-04-04T07:42:45;101293.34;;;19.55;44.79
40075;BME280;26529;51.530;11.754;2023-04-04T07:45:11;101293.28;;;19.56;44.78
40075;BME280;26529;51.530;11.754;2023-04-04T07:47:36;101296.81;;;19.57;44.78
40075;BME280;26529;51.530;11.754;2023-04-04T07:50:03;101290.56;;;19.58;44.62
40075;BME280;26529;51.530;11.754;2023-04-04T07:52:28;101293.22;;;19.58;44.72
40075;BME280;26529;51.530;11.754;2023-04-04T07:54:54;101292.25;;;19.59;44.73
40075;BME280;26529;51.530;11.754;2023-04-04T07:57:19;101291.31;;;19.60;44.65
40075;BME280;26529;51.530;11.754;2023-04-04T07:59:45;101287.72;;;19.61;44.75
40075;BME280;26529;51.530;11.754;2023-04-04T08:02:11;101288.59;;;19.61;44.71
40075;BME280;26529;51.530;11.754;2023-04-04T08:04:37;101289.47;;;19.62;44.81
40075;BME280;26529;51.530;11.754;2023-04-04T08:07:02;101287.59;;;19.64;45.00
40075;BME280;26529;51.530;11.754;2023-04-04T08:09:28;101286.72;;;19.63;44.75
40075;BME280;26529;51.530;11.754;2023-04-04T08:11:59;101286.72;;;19.63;44.76
40075;BME280;26529;51.530;11.754;2023-04-04T08:14:26;101291.03;;;19.66;44.73
40075;BME280;26529;51.530;11.754;2023-04-04T08:16:52;101284.84;;;19.65;44.66
40075;BME280;26529;51.530;11.754;2023-04-04T08:19:17;101288.44;;;19.64;44.85
40075;BME280;26529;51.530;11.754;2023-04-04T08:21:43;101282.09;;;19.67;44.94
40075;BME280;26529;51.530;11.754;2023-04-04T08:24:10;101279.38;;;19.69;44.64
40075;BME280;26529;51.530;11.754;2023-04-04T08:26:36;101283.81;;;19.68;44.72
40075;BME280;26529;51.530;11.754;2023-04-04T08:29:01;101282.09;;;19.67;44.78
40075;BME280;26529;51.530;11.754;2023-04-04T08:31:27;101275.84;;;19.68;44.90
40075;BME280;26529;51.530;11.754;2023-04-04T08:33:54;101273.16;;;19.68;44.81
40075;BME280;26529;51.530;11.754;2023-04-04T08:36:20;101281.09;;;19.70;44.89
40075;BME280;26529;51.530;11.754;2023-04-04T08:38:45;101273.09;;;19.70;44.78
40075;BME280;26529;51.530;11.754;2023-04-04T08:41:11;101281.03;;;19.71;44.73
40075;BME280;26529;51.530;11.754;2023-04-04T08:43:38;101277.47;;;19.71;44.85
40075;BME280;26529;51.530;11.754;2023-04-04T08:46:07;101281.91;;;19.72;44.75
40075;BME280;26529;51.530;11.754;2023-04-04T08:48:34;101280.94;;;19.73;44.87
40075;BME280;26529;51.530;11.754;2023-04-04T08:51:02;101276.47;;;19.73;44.85
40075;BME280;26529;51.530;11.754;2023-04-04T08:53:30;101284.47;;;19.73;44.83
40075;BME280;26529;51.530;11.754;2023-04-04T08:55:58;101281.78;;;19.73;44.77
40075;BME280;26529;51.530;11.754;2023-04-04T08:58:24;101281.78;;;19.73;44.74
40075;BME280;26529;51.530;11.754;2023-04-04T09:00:54;101277.34;;;19.74;44.78
40075;BME280;26529;51.530;11.754;2023-04-04T09:03:25;101275.53;;;19.74;44.70
40075;BME280;26529;51.530;11.754;2023-04-04T09:05:54;101275.53;;;19.74;44.71
40075;BME280;26529;51.530;11.754;2023-04-04T09:08:21;101279.06;;;19.75;44.69
40075;BME280;26529;51.530;11.754;2023-04-04T09:10:49;101280.78;;;19.76;44.70
40075;BME280;26529;51.530;11.754;2023-04-04T09:13:16;101278.19;;;19.74;44.99
40075;BME280;26529;51.530;11.754;2023-04-04T09:15:45;101277.28;;;19.75;44.74
40075;BME280;26529;51.530;11.754;2023-04-04T09:18:11;101285.25;;;19.75;44.77
40075;BME280;26529;51.530;11.754;2023-04-04T09:20:41;101286.09;;;19.76;44.83
40075;BME280;26529;51.530;11.754;2023-04-04T09:25:35;101294.16;;;19.74;44.82
40075;BME280;26529;51.530;11.754;2023-04-04T09:28:03;101284.38;;;19.75;44.88
40075;BME280;26529;51.530;11.754;2023-04-04T09:30:31;101289.63;;;19.76;44.94
40075;BME280;26529;51.530;11.754;2023-04-04T09:33:02;101286.19;;;19.74;44.89
40075;BME280;26529;51.530;11.754;2023-04-04T09:35:33;101293.25;;;19.75;44.74
40075;BME280;26529;51.530;11.754;2023-04-04T09:38:00;101291.44;;;19.76;44.87
40075;BME280;26529;51.530;11.754;2023-04-04T09:40:27;101287.94;;;19.75;44.73
40075;BME280;26529;51.530;11.754;2023-04-04T09:42:54;101286.09;;;19.76;45.01
40075;BME280;26529;51.530;11.754;2023-04-04T09:45:23;101282.66;;;19.74;44.86
40075;BME280;26529;51.530;11.754;2023-04-04T09:47:50;101288.06;;;19.72;44.88
40075;BME280;26529;51.530;11.754;2023-04-04T09:50:21;101291.50;;;19.74;44.88
40075;BME280;26529;51.530;11.754;2023-04-04T09:52:48;101295.97;;;19.74;44.86
40075;BME280;26529;51.530;11.754;2023-04-04T09:55:14;101295.03;;;19.75;44.86
40075;BME280;26529;51.530;11.754;2023-04-04T09:57:40;101296.75;;;19.76;44.90
40075;BME280;26529;51.530;11.754;2023-04-04T10:00:06;101293.16;;;19.77;44.92
40075;BME280;26529;51.530;11.754;2023-04-04T10:02:37;101288.69;;;19.77;44.82
40075;BME280;26529;51.530;11.754;2023-04-04T10:05:03;101293.06;;;19.78;44.90
40075;BME280;26529;51.530;11.754;2023-04-04T10:07:30;101286.81;;;19.79;44.80
40075;BME280;26529;51.530;11.754;2023-04-04T10:10:00;101285.88;;;19.80;44.69
40075;BME280;26529;51.530;11.754;2023-04-04T10:12:25;101287.59;;;19.82;44.78
40075;BME280;26529;51.530;11.754;2023-04-04T10:14:56;101285.09;;;19.78;44.82
40075;BME280;26529;51.530;11.754;2023-04-04T10:17:23;101283.38;;;19.77;44.80
40075;BME280;26529;51.530;11.754;2023-04-04T10:19:50;101281.66;;;19.76;44.80
40075;BME280;26529;51.530;11.754;2023-04-04T10:22:19;101281.50;;;19.79;44.85
40075;BME280;26529;51.530;11.754;2023-04-04T10:24:45;101276.16;;;19.79;44.74
40075;BME280;26529;51.530;11.754;2023-04-04T10:27:11;101277.88;;;19.80;44.76
40075;BME280;26529;51.530;11.754;2023-04-04T10:29:36;101276.03;;;19.83;44.88
40075;BME280;26529;51.530;11.754;2023-04-04T10:32:05;101273.25;;;19.84;44.74
40075;BME280;26529;51.530;11.754;2023-04-04T10:34:37;101268.03;;;19.83;44.66
40075;BME280;26529;51.530;11.754;2023-04-04T10:37:16;101265.38;;;19.83;44.66
40075;BME280;26529;51.530;11.754;2023-04-04T10:39:50;101267.03;;;19.85;44.86
40075;BME280;26529;51.530;11.754;2023-04-04T10:42:17;101263.50;;;19.85;44.57
40075;BME280;26529;51.530;11.754;2023-04-04T10:44:44;101266.16;;;19.85;44.64
40075;BME280;26529;51.530;11.754;2023-04-04T10:47:17;101263.50;;;19.85;44.62
40075;BME280;26529;51.530;11.754;2023-04-04T10:49:47;101266.16;;;19.85;44.62
40075;BME280;26529;51.530;11.754;2023-04-04T10:52:15;101252.84;;;19.85;44.71
40075;BME280;26529;51.530;11.754;2023-04-04T10:54:42;101249.25;;;19.86;44.55
40075;BME280;26529;51.530;11.754;2023-04-04T10:57:09;101249.31;;;19.84;44.58
40075;BME280;26529;51.530;11.754;2023-04-04T11:00:07;101238.59;;;19.86;44.70
40075;BME280;26529;51.530;11.754;2023-04-04T11:02:53;101241.03;;;19.90;44.59
40075;BME280;26529;51.530;11.754;2023-04-04T11:05:38;101240.19;;;19.90;44.40
40075;BME280;26529;51.530;11.754;2023-04-04T11:08:21;101243.69;;;19.90;44.59
40075;BME280;26529;51.530;11.754;2023-04-04T11:10:50;101223.97;;;19.95;44.53
40075;BME280;26529;51.530;11.754;2023-04-04T11:16:13;101226.63;;;19.95;44.62
40075;BME280;26529;51.530;11.754;2023-04-04T11:21:17;101221.38;;;19.93;44.67
40075;BME280;26529;51.530;11.754;2023-04-04T11:26:12;101217.88;;;19.92;44.53
40075;BME280;26529;51.530;11.754;2023-04-04T11:34:14;101227.63;;;19.92;44.70
40075;BME280;26529;51.530;11.754;2023-04-04T11:47:13;101213.28;;;19.96;44.85
40075;BME280;26529;51.530;11.754;2023-04-04T11:49:42;101208.88;;;19.95;44.68
40075;BME280;26529;51.530;11.754;2023-04-04T11:52:13;101200.88;;;19.95;44.66
40075;BME280;26529;51.530;11.754;2023-04-04T11:54:40;101207.13;;;19.94;44.65
40075;BME280;26529;51.530;11.754;2023-04-04T11:57:24;101204.44;;;19.94;44.66
40075;BME280;26529;51.530;11.754;2023-04-04T11:59:50;101203.53;;;19.95;44.78
40075;BME280;26529;51.530;11.754;2023-04-04T12:02:25;101207.94;;;19.96;44.57
40075;BME280;26529;51.530;11.754;2023-04-04T12:04:54;101199.13;;;19.94;44.58
40075;BME280;26529;51.530;11.754;2023-04-04T12:07:22;101204.44;;;19.94;44.52
40075;BME280;26529;51.530;11.754;2023-04-04T12:09:48;101202.75;;;19.93;44.58
40075;BME280;26529;51.530;11.754;2023-04-04T12:12:15;101200.72;;;19.98;44.46
40075;BME280;26529;51.530;11.754;2023-04-04T12:14:41;101198.69;;;20.03;44.34
40075;BME280;26529;51.530;11.754;2023-04-04T12:17:06;101181.78;;;20.04;44.28
40075;BME280;26529;51.530;11.754;2023-04-04T12:19:35;101181.00;;;20.02;44.53
40075;BME280;26529;51.530;11.754;2023-04-04T12:22:02;101180.06;;;20.03;44.38
40075;BME280;26529;51.530;11.754;2023-04-04T12:24:27;101180.66;;;20.09;44.52
40075;BME280;26529;51.530;11.754;2023-04-04T12:26:53;101176.19;;;20.09;44.50
40075;BME280;26529;51.530;11.754;2023-04-04T12:29:21;101175.25;;;20.10;44.46
40075;BME280;26529;51.530;11.754;2023-04-04T12:31:48;101171.91;;;20.06;44.56
40075;BME280;26529;51.530;11.754;2023-04-04T12:34:24;101171.06;;;20.06;44.32
40075;BME280;26529;51.530;11.754;2023-04-04T12:36:51;101173.78;;;20.04;44.50
40075;BME280;26529;51.530;11.754;2023-04-04T12:39:19;101181.72;;;20.06;44.59
40075;BME280;26529;51.530;11.754;2023-04-04T12:41:53;101171.06;;;20.06;44.57
40075;BME280;26529;51.530;11.754;2023-04-04T12:47:00;101170.00;;;20.09;44.56
40075;BME280;26529;51.530;11.754;2023-04-04T12:49:27;101166.31;;;20.11;44.48
40075;BME280;26529;51.530;11.754;2023-04-04T12:51:54;101162.63;;;20.14;44.42
40075;BME280;26529;51.530;11.754;2023-04-04T12:54:29;101157.94;;;20.19;44.48
40075;BME280;26529;51.530;11.754;2023-04-04T12:56:58;101159.66;;;20.20;44.26
40075;BME280;26529;51.530;11.754;2023-04-04T12:59:30;101151.50;;;20.23;44.34
40075;BME280;26529;51.530;11.754;2023-04-04T13:01:56;101149.53;;;20.27;44.32
40075;BME280;26529;51.530;11.754;2023-04-04T13:04:22;101146.78;;;20.28;44.48
40075;BME280;26529;51.530;11.754;2023-04-04T13:06:49;101145.66;;;20.32;44.18
40075;BME280;26529;51.530;11.754;2023-04-04T13:09:21;101135.28;;;20.28;44.22
40075;BME280;26529;51.530;11.754;2023-04-04T13:11:58;101139.72;;;20.27;44.39